createdAt,value
2023-07-26T00:00:07.296Z,96971.69
2023-07-26T00:02:34.261Z,96955.16
2023-07-26T00:05:01.226Z,96956.38
2023-07-26T00:07:28.138Z,96937.06
2023-07-26T00:09:55.072Z,96942.31
2023-07-26T00:12:22.021Z,96948.31
2023-07-26T00:14:48.918Z,96940.19
2023-07-26T00:17:15.777Z,96937.81
2023-07-26T00:19:42.726Z,96936.56
2023-07-26T00:22:09.591Z,96921.03
2023-07-26T00:24:36.598Z,96911.53
2023-07-26T00:27:03.718Z,96918.88
2023-07-26T00:29:30.622Z,96914.09
2023-07-26T00:31:57.523Z,96895.72
2023-07-26T00:34:24.400Z,96898.34
2023-07-26T00:36:51.313Z,96899.41
2023-07-26T00:39:19.712Z,96899.09
2023-07-26T00:41:46.672Z,96894.94
2023-07-26T00:44:13.546Z,96889.00
2023-07-26T00:46:40.882Z,96891.19
2023-07-26T00:49:08.768Z,96904.69
2023-07-26T00:51:37.206Z,96905.31
2023-07-26T00:54:05.282Z,96905.56
2023-07-26T00:56:32.462Z,96911.78
2023-07-26T00:58:59.772Z,96912.94
2023-07-26T01:01:27.970Z,96917.00
2023-07-26T01:03:54.901Z,96915.06
2023-07-26T01:06:35.231Z,96911.06
2023-07-26T01:09:33.388Z,96903.72
2023-07-26T01:12:11.436Z,96923.75
2023-07-26T01:15:03.950Z,96913.34
2023-07-26T01:17:31.252Z,96919.22
2023-07-26T01:19:58.253Z,96912.28
2023-07-26T01:22:25.208Z,96916.72
2023-07-26T01:24:52.132Z,96916.34
2023-07-26T01:27:19.136Z,96924.25
2023-07-26T01:29:46.080Z,96926.41
2023-07-26T01:32:15.983Z,96937.06
2023-07-26T01:34:42.929Z,96939.50
2023-07-26T01:37:10.165Z,96937.37
2023-07-26T01:39:37.130Z,96927.00
2023-07-26T01:42:04.577Z,96916.94
2023-07-26T01:44:38.350Z,96915.13
2023-07-26T01:47:05.616Z,96918.09
2023-07-26T01:49:32.642Z,96906.44
2023-07-26T01:51:59.660Z,96914.03
2023-07-26T01:54:26.584Z,96916.75
2023-07-26T01:56:53.477Z,96908.56
2023-07-26T01:59:20.361Z,96913.28
2023-07-26T02:01:47.300Z,96907.97
2023-07-26T02:04:14.275Z,96908.00
2023-07-26T02:06:41.207Z,96917.09
2023-07-26T02:09:09.864Z,96907.66
2023-07-26T02:11:36.812Z,96917.88
2023-07-26T02:14:03.712Z,96920.84
2023-07-26T02:16:30.636Z,96914.81
2023-07-26T02:18:57.570Z,96910.47
2023-07-26T02:21:24.613Z,96914.31
2023-07-26T02:23:51.513Z,96914.78
2023-07-26T02:26:18.412Z,96926.88
2023-07-26T02:28:45.303Z,96925.03
2023-07-26T02:31:12.253Z,96934.56
2023-07-26T02:33:39.144Z,96938.28
2023-07-26T02:36:06.105Z,96945.97
2023-07-26T02:38:33.067Z,96965.50
2023-07-26T02:40:59.959Z,96963.72
2023-07-26T02:43:38.997Z,96967.22
2023-07-26T02:46:07.854Z,96968.88
2023-07-26T02:48:34.862Z,96964.69
2023-07-26T02:51:01.797Z,96969.59
2023-07-26T02:53:28.728Z,96961.44
2023-07-26T02:55:55.710Z,96964.66
2023-07-26T02:58:22.601Z,96967.28
2023-07-26T03:00:53.674Z,96961.38
2023-07-26T03:03:20.677Z,96968.66
2023-07-26T03:05:47.844Z,96973.63
2023-07-26T03:08:14.759Z,96974.25
2023-07-26T03:10:41.665Z,96978.66
2023-07-26T03:13:08.580Z,96982.03
2023-07-26T03:15:40.041Z,96987.31
2023-07-26T03:18:07.062Z,96979.84
2023-07-26T03:20:34.024Z,96980.81
2023-07-26T03:23:00.934Z,97004.03
2023-07-26T03:25:27.832Z,97002.28
2023-07-26T03:27:54.909Z,97003.25
2023-07-26T03:30:21.751Z,97003.91
2023-07-26T03:32:48.719Z,96993.47
2023-07-26T03:35:15.715Z,97003.44
2023-07-26T03:37:42.641Z,96989.09
2023-07-26T03:40:10.189Z,97002.16
2023-07-26T03:42:37.094Z,96998.13
2023-07-26T03:45:04.236Z,97000.44
2023-07-26T03:47:31.192Z,97009.34
2023-07-26T03:49:58.153Z,96976.78
2023-07-26T03:52:25.070Z,96982.09
2023-07-26T03:54:52.179Z,96985.59
2023-07-26T03:57:19.101Z,96969.81
2023-07-26T03:59:46.010Z,96966.94
2023-07-26T04:02:12.982Z,96968.41
2023-07-26T04:04:39.939Z,96967.75
2023-07-26T04:07:06.947Z,96985.31
2023-07-26T04:09:34.073Z,96978.09
2023-07-26T04:12:01.028Z,96989.22
2023-07-26T04:14:28.026Z,96977.84
2023-07-26T04:16:54.946Z,96982.56
2023-07-26T04:19:21.856Z,96977.78
2023-07-26T04:21:48.807Z,96979.34
2023-07-26T04:24:15.838Z,96973.63
2023-07-26T04:26:42.802Z,96968.94
2023-07-26T04:29:09.681Z,96969.03
2023-07-26T04:31:36.608Z,96977.94
2023-07-26T04:34:03.566Z,96985.50
2023-07-26T04:36:30.864Z,96981.97
2023-07-26T04:38:57.969Z,96985.94
2023-07-26T04:41:24.942Z,96961.72
2023-07-26T04:43:51.887Z,96955.00
2023-07-26T04:46:18.815Z,96960.81
2023-07-26T04:48:45.819Z,96971.72
2023-07-26T04:51:12.813Z,96969.72
2023-07-26T04:53:39.733Z,96968.47
2023-07-26T04:56:06.644Z,96964.75
2023-07-26T04:58:33.710Z,96972.47
2023-07-26T05:01:00.682Z,96972.28
2023-07-26T05:03:27.663Z,96977.97
2023-07-26T05:05:54.595Z,97000.94
2023-07-26T05:08:23.120Z,97012.97
2023-07-26T05:10:53.351Z,97020.28
2023-07-26T05:13:20.606Z,97006.16
2023-07-26T05:15:50.645Z,97016.06
2023-07-26T05:18:17.515Z,97012.25
2023-07-26T05:20:44.412Z,97021.19
2023-07-26T05:23:11.323Z,97019.59
2023-07-26T05:25:41.042Z,97018.69
2023-07-26T05:28:08.007Z,97045.69
2023-07-26T05:30:42.521Z,97039.97
2023-07-26T05:33:09.912Z,97057.81
2023-07-26T05:35:36.797Z,97055.19
2023-07-26T05:38:03.990Z,97064.09
2023-07-26T05:40:30.868Z,97077.62
2023-07-26T05:43:00.359Z,97077.66
2023-07-26T05:45:27.734Z,97090.75
2023-07-26T05:47:54.683Z,97074.06
2023-07-26T05:50:24.975Z,97095.00
2023-07-26T05:52:52.541Z,97090.22
2023-07-26T05:55:19.570Z,97103.03
2023-07-26T05:57:46.489Z,97115.22
2023-07-26T06:00:15.322Z,97111.06
2023-07-26T06:02:42.779Z,97113.13
2023-07-26T06:05:10.162Z,97115.22
2023-07-26T06:07:40.182Z,97124.94
2023-07-26T06:10:07.277Z,97123.59
2023-07-26T06:12:34.305Z,97120.66
2023-07-26T06:15:01.256Z,97115.31
2023-07-26T06:17:31.008Z,97115.88
2023-07-26T06:19:57.930Z,97106.66
2023-07-26T06:22:24.788Z,97113.41
2023-07-26T06:24:51.790Z,97117.50
2023-07-26T06:27:30.589Z,97111.87
2023-07-26T06:29:58.443Z,97104.19
2023-07-26T06:32:25.394Z,97118.34
2023-07-26T06:34:52.350Z,97111.34
2023-07-26T06:37:30.233Z,97124.12
2023-07-26T06:39:57.156Z,97122.56
2023-07-26T06:42:24.135Z,97126.53
2023-07-26T06:44:51.057Z,97125.50
2023-07-26T06:47:18.965Z,97139.25
2023-07-26T06:49:45.862Z,97146.38
2023-07-26T06:52:12.855Z,97139.59
2023-07-26T06:54:39.767Z,97146.88
2023-07-26T06:57:07.564Z,97148.72
2023-07-26T06:59:34.460Z,97141.09
2023-07-26T07:02:01.360Z,97152.72
2023-07-26T07:04:28.387Z,97156.59
2023-07-26T07:06:55.293Z,97131.84
2023-07-26T07:09:25.400Z,97157.69
2023-07-26T07:11:52.392Z,97154.50
2023-07-26T07:14:20.347Z,97152.97
2023-07-26T07:16:47.352Z,97157.00
2023-07-26T07:19:14.260Z,97165.37
2023-07-26T07:21:42.587Z,97174.44
2023-07-26T07:24:09.491Z,97164.56
2023-07-26T07:26:36.379Z,97172.66
2023-07-26T07:29:07.025Z,97156.81
2023-07-26T07:31:34.252Z,97155.56
2023-07-26T07:34:01.498Z,97151.78
2023-07-26T07:36:28.430Z,97153.13
2023-07-26T07:38:56.341Z,97169.44
2023-07-26T07:41:23.237Z,97165.94
2023-07-26T07:43:50.136Z,97175.66
2023-07-26T07:46:17.124Z,97174.34
2023-07-26T07:48:44.105Z,97179.78
2023-07-26T07:51:10.987Z,97191.22
2023-07-26T07:53:38.040Z,97195.19
2023-07-26T07:56:05.097Z,97196.91
2023-07-26T07:58:37.856Z,97201.56
2023-07-26T08:01:04.781Z,97199.38
2023-07-26T08:03:31.736Z,97201.56
2023-07-26T08:05:58.699Z,97205.72
2023-07-26T08:08:25.685Z,97216.28
2023-07-26T08:10:52.548Z,97221.78
2023-07-26T08:13:19.449Z,97220.41
2023-07-26T08:15:46.554Z,97232.25
2023-07-26T08:18:13.573Z,97234.56
2023-07-26T08:20:40.503Z,97227.31
2023-07-26T08:23:07.770Z,97236.94
2023-07-26T08:25:35.129Z,97228.41
2023-07-26T08:28:03.066Z,97217.25
2023-07-26T08:30:30.010Z,97231.28
2023-07-26T08:32:57.010Z,97234.03
2023-07-26T08:35:24.185Z,97234.59
2023-07-26T08:37:54.056Z,97241.72
2023-07-26T08:40:22.331Z,97234.69
2023-07-26T08:42:49.426Z,97237.25
2023-07-26T08:45:17.498Z,97247.66
2023-07-26T08:47:44.656Z,97239.78
2023-07-26T08:50:12.019Z,97238.44
2023-07-26T08:52:39.102Z,97246.06
2023-07-26T08:55:07.429Z,97253.41
2023-07-26T08:57:34.522Z,97262.44
2023-07-26T09:00:01.569Z,97286.03
2023-07-26T09:02:29.049Z,97280.13
2023-07-26T09:04:57.768Z,97280.28
2023-07-26T09:07:30.728Z,97294.72
2023-07-26T09:09:57.802Z,97294.72
2023-07-26T09:12:27.188Z,97287.28
2023-07-26T09:14:55.619Z,97303.81
2023-07-26T09:17:22.748Z,97301.72
2023-07-26T09:19:53.001Z,97311.34
2023-07-26T09:22:20.127Z,97317.47
2023-07-26T09:24:51.106Z,97324.72
2023-07-26T09:27:18.509Z,97327.78
2023-07-26T09:29:55.494Z,97334.19
2023-07-26T09:32:29.737Z,97326.59
2023-07-26T09:35:01.217Z,97337.12
2023-07-26T09:37:28.614Z,97343.16
2023-07-26T09:39:55.628Z,97354.44
2023-07-26T09:42:23.896Z,97350.91
2023-07-26T09:44:59.939Z,97353.00
2023-07-26T09:52:37.445Z,97350.63
2023-07-26T09:55:09.515Z,97348.34
2023-07-26T09:57:39.662Z,97354.66
2023-07-26T10:00:08.752Z,97336.94
2023-07-26T10:02:36.739Z,97340.25
2023-07-26T10:05:04.733Z,97345.78
2023-07-26T10:07:32.710Z,97342.34
2023-07-26T10:10:02.442Z,97346.72
2023-07-26T10:12:31.139Z,97338.47
2023-07-26T10:14:58.107Z,97341.94
2023-07-26T10:17:27.994Z,97328.72
2023-07-26T10:19:56.334Z,97340.13
2023-07-26T10:22:24.192Z,97340.25
2023-07-26T10:24:51.295Z,97330.50
2023-07-26T10:27:18.324Z,97342.19
2023-07-26T10:29:45.965Z,97330.69
2023-07-26T10:32:13.318Z,97328.56
2023-07-26T10:34:41.359Z,97329.50
2023-07-26T10:37:21.222Z,97338.88
2023-07-26T10:39:50.459Z,97345.28
2023-07-26T10:42:27.407Z,97342.03
2023-07-26T10:45:01.276Z,97342.34
2023-07-26T10:47:28.313Z,97333.47
2023-07-26T10:49:56.579Z,97334.16
2023-07-26T10:52:23.480Z,97325.13
2023-07-26T10:54:52.226Z,97351.16
2023-07-26T10:57:28.462Z,97354.53
2023-07-26T11:00:12.230Z,97343.84
2023-07-26T11:02:49.545Z,97345.78
2023-07-26T11:05:24.024Z,97349.03
2023-07-26T11:07:59.885Z,97346.72
2023-07-26T11:10:37.028Z,97347.59
2023-07-26T11:13:13.825Z,97351.88
2023-07-26T11:16:11.377Z,97342.38
2023-07-26T11:18:29.870Z,97348.22
2023-07-26T11:20:57.127Z,97345.84
2023-07-26T11:23:29.074Z,97337.75
2023-07-26T11:26:00.753Z,97347.03
2023-07-26T11:28:32.714Z,97353.66
2023-07-26T11:31:00.464Z,97364.81
2023-07-26T11:33:31.239Z,97343.91
2023-07-26T11:35:59.127Z,97355.13
2023-07-26T11:38:26.306Z,97361.25
2023-07-26T11:40:59.660Z,97370.06
2023-07-26T11:43:27.992Z,97367.91
2023-07-26T11:45:56.998Z,97372.06
2023-07-26T11:48:25.861Z,97361.22
2023-07-26T11:50:56.772Z,97372.13
2023-07-26T11:56:08.273Z,97376.34
2023-07-26T11:58:35.833Z,97370.22
2023-07-26T12:01:05.170Z,97379.63
2023-07-26T12:03:33.129Z,97367.75
2023-07-26T12:06:03.547Z,97371.59
2023-07-26T12:08:32.577Z,97373.88
2023-07-26T12:11:03.797Z,97363.59
2023-07-26T12:13:34.052Z,97379.84
2023-07-26T12:16:03.345Z,97373.56
2023-07-26T12:18:30.844Z,97386.78
2023-07-26T12:21:10.307Z,97370.78
2023-07-26T12:23:53.104Z,97390.34
2023-07-26T12:26:30.838Z,97380.25
2023-07-26T12:28:59.895Z,97382.13
2023-07-26T12:31:28.969Z,97384.47
2023-07-26T12:34:00.247Z,97373.31
2023-07-26T12:36:32.086Z,97376.94
2023-07-26T12:38:59.557Z,97377.38
2023-07-26T12:41:27.427Z,97368.62
2023-07-26T12:43:57.909Z,97375.06
2023-07-26T12:46:25.054Z,97370.44
2023-07-26T12:48:58.826Z,97357.22
2023-07-26T12:51:27.050Z,97365.22
2023-07-26T12:53:54.863Z,97374.53
2023-07-26T12:56:22.395Z,97367.03
2023-07-26T12:59:04.768Z,97379.94
2023-07-26T13:01:33.744Z,97371.37
2023-07-26T13:04:00.867Z,97372.69
2023-07-26T13:06:27.855Z,97361.13
2023-07-26T13:08:54.839Z,97374.28
2023-07-26T13:11:21.712Z,97383.97
2023-07-26T13:13:48.595Z,97376.91
2023-07-26T13:16:15.553Z,97375.81
2023-07-26T13:18:42.514Z,97364.72
2023-07-26T13:21:09.449Z,97367.00
2023-07-26T13:23:36.308Z,97366.72
2023-07-26T13:26:03.830Z,97366.97
2023-07-26T13:28:30.762Z,97379.84
2023-07-26T13:30:57.652Z,97380.22
2023-07-26T13:33:27.136Z,97377.91
2023-07-26T13:35:55.700Z,97387.81
2023-07-26T13:38:22.782Z,97386.06
2023-07-26T13:40:49.688Z,97387.91
2023-07-26T13:43:16.584Z,97396.06
2023-07-26T13:45:44.848Z,97394.75
2023-07-26T13:48:14.169Z,97400.78
2023-07-26T13:50:41.111Z,97414.31
2023-07-26T13:53:08.018Z,97411.19
2023-07-26T13:55:35.102Z,97411.00
2023-07-26T13:58:01.986Z,97412.00
2023-07-26T14:00:28.904Z,97417.66
2023-07-26T14:02:55.948Z,97424.47
2023-07-26T14:05:23.140Z,97429.53
2023-07-26T14:07:50.071Z,97424.81
2023-07-26T14:10:17.049Z,97425.75
2023-07-26T14:12:44.035Z,97432.06
2023-07-26T14:15:10.964Z,97441.97
2023-07-26T14:17:38.057Z,97433.25
2023-07-26T14:20:05.731Z,97433.91
2023-07-26T14:22:32.651Z,97435.06
2023-07-26T14:24:59.556Z,97428.47
2023-07-26T14:27:26.455Z,97434.53
2023-07-26T14:29:53.379Z,97439.56
2023-07-26T14:32:20.298Z,97448.69
2023-07-26T14:34:47.232Z,97456.84
2023-07-26T14:37:14.188Z,97467.16
2023-07-26T14:39:41.117Z,97465.94
2023-07-26T14:42:08.374Z,97464.00
2023-07-26T14:44:35.250Z,97470.59
2023-07-26T14:47:02.204Z,97476.75
2023-07-26T14:49:29.210Z,97480.13
2023-07-26T14:51:56.131Z,97473.88
2023-07-26T14:54:23.187Z,97466.09
2023-07-26T14:57:04.604Z,97471.22
2023-07-26T14:59:36.921Z,97482.25
2023-07-26T15:02:03.926Z,97486.28
2023-07-26T15:04:31.050Z,97481.13
2023-07-26T15:06:58.083Z,97492.81
2023-07-26T15:09:25.027Z,97499.97
2023-07-26T15:11:51.906Z,97504.25
2023-07-26T15:14:18.766Z,97504.03
2023-07-26T15:16:45.692Z,97499.00
2023-07-26T15:19:12.629Z,97495.84
2023-07-26T15:21:39.508Z,97490.53
2023-07-26T15:24:06.486Z,97505.31
2023-07-26T15:26:33.526Z,97498.22
2023-07-26T15:29:00.429Z,97508.81
2023-07-26T15:31:28.544Z,97505.47
2023-07-26T15:33:55.589Z,97503.84
2023-07-26T15:36:22.485Z,97506.16
2023-07-26T15:38:49.418Z,97502.03
2023-07-26T15:41:17.081Z,97496.75
2023-07-26T15:46:37.049Z,97501.78
2023-07-26T15:49:03.163Z,97498.34
2023-07-26T15:51:30.642Z,97498.63
2023-07-26T15:53:58.310Z,97506.78
2023-07-26T15:56:25.693Z,97504.22
2023-07-26T15:58:52.878Z,97512.09
2023-07-26T16:01:24.291Z,97518.66
2023-07-26T16:03:53.705Z,97525.06
2023-07-26T16:06:21.126Z,97525.63
2023-07-26T16:11:18.615Z,97524.97
2023-07-26T16:13:45.620Z,97536.53
2023-07-26T16:19:12.412Z,97540.81
2023-07-26T16:23:58.964Z,97545.34
2023-07-26T16:26:25.871Z,97547.34
2023-07-26T16:28:52.753Z,97545.34
2023-07-26T16:31:19.715Z,97546.97
2023-07-26T16:33:46.676Z,97549.47
2023-07-26T16:36:13.600Z,97540.50
2023-07-26T16:38:40.528Z,97544.38
2023-07-26T16:41:07.429Z,97545.31
2023-07-26T16:43:34.325Z,97552.38
2023-07-26T16:46:01.289Z,97554.66
2023-07-26T16:48:28.299Z,97558.97
2023-07-26T16:50:55.220Z,97560.28
2023-07-26T16:53:22.184Z,97561.34
2023-07-26T16:55:49.140Z,97560.34
2023-07-26T16:58:16.032Z,97564.13
2023-07-26T17:00:43.575Z,97574.75
2023-07-26T17:03:10.775Z,97568.72
2023-07-26T17:05:37.997Z,97578.13
2023-07-26T17:08:05.391Z,97574.81
2023-07-26T17:10:32.446Z,97587.53
2023-07-26T17:12:59.329Z,97590.19
2023-07-26T17:15:26.261Z,97594.69
2023-07-26T17:17:53.215Z,97597.19
2023-07-26T17:20:20.132Z,97605.47
2023-07-26T17:22:47.098Z,97609.31
2023-07-26T17:25:14.009Z,97606.47
2023-07-26T17:27:41.696Z,97612.69
2023-07-26T17:30:09.588Z,97621.03
2023-07-26T17:32:36.556Z,97605.28
2023-07-26T17:35:03.620Z,97610.66
2023-07-26T17:37:30.508Z,97608.09
2023-07-26T17:39:57.411Z,97609.31
2023-07-26T17:42:24.307Z,97613.22
2023-07-26T17:44:51.738Z,97627.69
2023-07-26T17:47:19.071Z,97630.13
2023-07-26T17:49:46.008Z,97631.56
2023-07-26T17:52:12.969Z,97630.75
2023-07-26T17:54:39.849Z,97626.00
2023-07-26T17:57:07.010Z,97634.12
2023-07-26T17:59:39.285Z,97626.84
2023-07-26T18:02:07.435Z,97624.53
2023-07-26T18:04:34.691Z,97636.81
2023-07-26T18:07:01.855Z,97648.09
2023-07-26T18:09:28.960Z,97652.00
2023-07-26T18:11:56.497Z,97656.06
2023-07-26T18:14:24.767Z,97664.94
2023-07-26T18:16:52.206Z,97661.81
2023-07-26T18:19:20.687Z,97671.16
2023-07-26T18:21:47.661Z,97681.94
2023-07-26T18:24:14.547Z,97673.72
2023-07-26T18:26:42.110Z,97686.31
2023-07-26T18:29:09.377Z,97684.78
2023-07-26T18:31:40.488Z,97684.69
2023-07-26T18:34:09.149Z,97678.25
2023-07-26T18:36:36.393Z,97685.41
2023-07-26T18:39:03.847Z,97691.63
2023-07-26T18:41:31.143Z,97696.34
2023-07-26T18:43:58.144Z,97696.50
2023-07-26T18:46:25.619Z,97708.34
2023-07-26T18:48:52.871Z,97708.22
2023-07-26T18:51:19.827Z,97705.91
2023-07-26T18:53:46.794Z,97716.97
2023-07-26T18:56:13.671Z,97717.94
2023-07-26T18:58:41.067Z,97715.06
2023-07-26T19:01:08.016Z,97712.81
2023-07-26T19:03:34.989Z,97718.47
2023-07-26T19:06:02.183Z,97716.06
2023-07-26T19:08:29.231Z,97718.31
2023-07-26T19:10:56.192Z,97731.34
2023-07-26T19:13:23.223Z,97729.00
2023-07-26T19:16:00.534Z,97734.72
2023-07-26T19:18:27.525Z,97736.78
2023-07-26T19:21:06.303Z,97745.63
2023-07-26T19:23:33.902Z,97751.47
2023-07-26T19:26:02.369Z,97751.47
2023-07-26T19:28:29.574Z,97745.56
2023-07-26T19:30:56.495Z,97737.91
2023-07-26T19:33:23.733Z,97749.03
2023-07-26T19:35:57.553Z,97738.56
2023-07-26T19:38:26.231Z,97743.22
2023-07-26T19:41:10.372Z,97746.41
2023-07-26T19:43:38.379Z,97743.53
2023-07-26T19:46:07.626Z,97740.31
2023-07-26T19:48:34.813Z,97749.56
2023-07-26T19:51:01.878Z,97743.38
2023-07-26T19:53:28.833Z,97752.25
2023-07-26T19:55:56.047Z,97744.25
2023-07-26T19:58:22.990Z,97752.00
2023-07-26T20:00:49.942Z,97753.88
2023-07-26T20:03:16.948Z,97745.06
2023-07-26T20:05:50.821Z,97746.38
2023-07-26T20:08:17.982Z,97745.44
2023-07-26T20:10:46.116Z,97739.13
2023-07-26T20:13:16.336Z,97734.63
2023-07-26T20:15:44.329Z,97733.34
2023-07-26T20:18:12.126Z,97749.12
2023-07-26T20:20:39.280Z,97749.94
2023-07-26T20:23:06.687Z,97750.34
2023-07-26T20:25:34.750Z,97747.81
2023-07-26T20:28:01.791Z,97749.94
2023-07-26T20:30:28.746Z,97737.28
2023-07-26T20:32:55.667Z,97750.72
2023-07-26T20:35:22.798Z,97749.00
2023-07-26T20:37:50.568Z,97755.78
2023-07-26T20:40:17.494Z,97746.34
2023-07-26T20:42:44.355Z,97746.22
2023-07-26T20:45:11.418Z,97740.97
2023-07-26T20:47:38.360Z,97742.97
2023-07-26T20:50:05.999Z,97742.00
2023-07-26T20:52:32.994Z,97753.16
2023-07-26T20:55:00.707Z,97751.34
2023-07-26T20:57:28.898Z,97758.44
2023-07-26T20:59:55.908Z,97758.03
2023-07-26T21:02:23.594Z,97767.66
2023-07-26T21:04:50.857Z,97770.81
2023-07-26T21:07:18.079Z,97780.81
2023-07-26T21:09:44.992Z,97782.41
2023-07-26T21:12:12.027Z,97791.97
2023-07-26T21:14:38.942Z,97784.97
2023-07-26T21:17:06.053Z,97803.84
2023-07-26T21:19:33.524Z,97807.75
2023-07-26T21:22:00.616Z,97804.56
2023-07-26T21:24:27.559Z,97804.16
2023-07-26T21:26:54.588Z,97802.88
2023-07-26T21:29:21.499Z,97805.56
2023-07-26T21:31:48.508Z,97825.16
2023-07-26T21:34:15.440Z,97812.59
2023-07-26T21:36:42.376Z,97822.38
2023-07-26T21:39:10.868Z,97814.00
2023-07-26T21:41:37.840Z,97821.28
2023-07-26T21:44:04.838Z,97812.44
2023-07-26T21:46:32.057Z,97819.66
2023-07-26T21:48:59.297Z,97823.69
2023-07-26T21:51:26.221Z,97819.56
2023-07-26T21:53:53.169Z,97828.28
2023-07-26T21:56:20.111Z,97826.69
2023-07-26T21:58:47.022Z,97838.31
2023-07-26T22:01:13.940Z,97842.50
2023-07-26T22:03:41.086Z,97852.16
2023-07-26T22:06:07.996Z,97849.56
2023-07-26T22:08:34.910Z,97845.56
2023-07-26T22:11:01.863Z,97849.63
2023-07-26T22:13:30.122Z,97838.78
2023-07-26T22:15:57.083Z,97842.88
2023-07-26T22:18:24.132Z,97848.38
2023-07-26T22:21:15.607Z,97862.66
2023-07-26T22:23:45.059Z,97860.34
2023-07-26T22:26:15.772Z,97859.91
2023-07-26T22:28:57.144Z,97856.22
2023-07-26T22:31:24.061Z,97855.53
2023-07-26T22:33:50.971Z,97855.12
2023-07-26T22:36:17.924Z,97863.22
2023-07-26T22:38:44.796Z,97859.63
2023-07-26T22:41:11.720Z,97856.94
2023-07-26T22:43:38.667Z,97859.59
2023-07-26T22:46:05.936Z,97863.53
2023-07-26T22:48:32.959Z,97878.75
2023-07-26T22:50:59.853Z,97881.97
2023-07-26T22:53:26.803Z,97874.44
2023-07-26T22:55:53.722Z,97869.16
2023-07-26T22:58:20.728Z,97870.69
2023-07-26T23:00:47.718Z,97858.44
2023-07-26T23:03:14.756Z,97874.22
2023-07-26T23:05:41.697Z,97868.97
2023-07-26T23:08:08.624Z,97873.72
2023-07-26T23:10:35.542Z,97867.84
2023-07-26T23:13:02.418Z,97873.22
2023-07-26T23:15:29.313Z,97874.59
2023-07-26T23:17:56.250Z,97884.59
2023-07-26T23:20:23.184Z,97881.28
2023-07-26T23:22:52.118Z,97872.72
2023-07-26T23:25:19.000Z,97886.81
2023-07-26T23:27:47.911Z,97885.03
2023-07-26T23:30:14.937Z,97903.56
2023-07-26T23:32:41.858Z,97899.88
2023-07-26T23:35:09.404Z,97907.00
2023-07-26T23:37:36.294Z,97910.22
2023-07-26T23:40:03.760Z,97918.44
2023-07-26T23:42:30.682Z,97920.84
2023-07-26T23:44:57.581Z,97914.91
2023-07-26T23:47:24.473Z,97912.53
2023-07-26T23:49:51.357Z,97917.31
2023-07-26T23:52:18.307Z,97926.44
2023-07-26T23:54:45.193Z,97930.56
2023-07-26T23:57:12.095Z,97929.72
2023-07-26T23:59:38.989Z,97923.13
